Thimphu, Bhutan
Current Conditions -  °F | °C
As of 2:20 PM on Sunday 21 Dec 2014 (Local Time) from VQPR Reporting Station
Scattered Clouds Scattered Clouds  
Wind Chill: 64°   Ceiling: Unl
Heat Index: 64°   Visibility: 6mi
Dew Point: 25°   Wind: 9mph
Humidity: 22%   Direction: 140°SE
Pressure: 30"   Gusts: NA
Location:  27.48°N, 89.7°E
Report Text: VQPR 210820Z 14008KT 9999 SCT120 18/M04 Q1016 NOSIG
Loading
Personal Weather Stations






























Interactive Weather Map New forecast layout! Learn more

10-Day Weather Forecast

Advertisements
Track Severe Weather on mobile